Time;durP1;ratioP1;P1;durP2;ratioP2;P2;SDS_P1;SDS_P2;PMS_P1;PMS_P2;Temp;Humidity;BMP_temperature;BMP_pressure;BME280_temperature;BME280_humidity;BME280_pressure;Samples;Min_cycle;Max_cycle;Signal;HPM_P1;HPM_P2
2022/03/12 00:01:43;;;;;;;;;;;;;;;20.62;43.79;100242.66;7282323;19;153230;-52
2022/03/12 00:04:10;;;;;;;;;;;;;;;20.58;44.04;100245.25;7281915;19;152183;-53
2022/03/12 00:06:37;;;;;;;;;;;;;;;20.55;44.21;100240.31;7281306;19;152745;-53
2022/03/12 00:09:05;;;;;;;;;;;;;;;20.54;44.04;100241.44;7288161;19;153205;-53
2022/03/12 00:11:34;;;;;;;;;;;;;;;20.54;43.97;100240.63;7280443;19;153450;-53
2022/03/12 00:14:03;;;;;;;;;;;;;;;20.53;44.33;100241.78;7281698;19;152369;-52
2022/03/12 00:16:32;;;;;;;;;;;;;;;20.51;43.92;100235.66;7282731;19;153170;-53
2022/03/12 00:19:02;;;;;;;;;;;;;;;20.51;44.33;100250.53;7281551;19;151931;-52
2022/03/12 00:21:30;;;;;;;;;;;;;;;20.49;44.06;100246.41;7281608;19;154571;-52
2022/03/12 00:24:00;;;;;;;;;;;;;;;20.47;44.37;100245.88;7282880;19;151750;-53
2022/03/12 00:26:29;;;;;;;;;;;;;;;20.44;44.08;100250.19;7280242;19;153609;-52
2022/03/12 00:28:56;;;;;;;;;;;;;;;20.43;44.58;100248.53;7280248;19;153974;-53
2022/03/12 00:31:23;;;;;;;;;;;;;;;20.42;44.36;100250.50;7290011;19;152266;-52
2022/03/12 00:33:50;;;;;;;;;;;;;;;20.40;44.63;100252.78;7280785;19;155257;-52
2022/03/12 00:36:17;;;;;;;;;;;;;;;20.39;44.45;100256.78;7282979;19;151975;-53
2022/03/12 00:38:44;;;;;;;;;;;;;;;20.39;44.88;100261.56;7282540;19;152794;-53
2022/03/12 00:41:12;;;;;;;;;;;;;;;20.38;44.61;100268.31;7281611;19;154002;-52
2022/03/12 00:43:39;;;;;;;;;;;;;;;20.35;44.98;100254.94;7282207;19;151514;-53
2022/03/12 00:46:06;;;;;;;;;;;;;;;20.35;44.67;100271.78;7279363;19;153517;-52
2022/03/12 00:48:34;;;;;;;;;;;;;;;20.32;44.70;100273.22;7279564;19;154124;-53
2022/03/12 00:51:05;;;;;;;;;;;;;;;20.30;45.01;100271.91;7289592;19;151816;-52
2022/03/12 00:53:32;;;;;;;;;;;;;;;20.28;44.85;100268.56;7280149;19;152654;-53
2022/03/12 00:55:59;;;;;;;;;;;;;;;20.27;44.79;100264.09;7280927;19;152035;-53
2022/03/12 00:58:26;;;;;;;;;;;;;;;20.26;44.91;100265.25;7281351;19;153360;-52
2022/03/12 01:00:52;;;;;;;;;;;;;;;20.25;44.96;100272.84;7279591;19;154346;-53
2022/03/12 01:03:19;;;;;;;;;;;;;;;20.23;45.28;100269.53;7281485;19;151838;-53
2022/03/12 01:05:49;;;;;;;;;;;;;;;20.22;45.32;100272.66;7280738;19;153612;-52
2022/03/12 01:08:20;;;;;;;;;;;;;;;20.21;45.34;100269.03;7278712;19;153219;-52
2022/03/12 01:10:47;;;;;;;;;;;;;;;20.20;45.28;100280.56;7275391;19;151815;-52
2022/03/12 01:13:14;;;;;;;;;;;;;;;20.19;45.58;100278.91;7286466;19;152475;-53
2022/03/12 01:15:41;;;;;;;;;;;;;;;20.18;45.75;100282.84;7281590;19;151709;-53
2022/03/12 01:18:09;;;;;;;;;;;;;;;20.16;45.56;100286.00;7278707;19;154389;-53
2022/03/12 01:20:36;;;;;;;;;;;;;;;20.14;45.42;100282.69;7280246;19;153394;-53
2022/03/12 01:23:06;;;;;;;;;;;;;;;20.14;45.68;100281.84;7279173;19;151695;-52
2022/03/12 01:25:42;;;;;;;;;;;;;;;20.13;45.70;100286.63;7281099;19;152780;-52
2022/03/12 01:28:10;;;;;;;;;;;;;;;20.12;45.66;100298.19;7278224;19;153463;-53
2022/03/12 01:30:37;;;;;;;;;;;;;;;20.08;45.73;100291.56;7281809;19;151900;-52
2022/03/12 01:33:05;;;;;;;;;;;;;;;20.09;45.65;100290.41;7280960;19;152738;-52
2022/03/12 01:35:38;;;;;;;;;;;;;;;20.06;45.90;100296.66;7287611;19;153186;-52
2022/03/12 01:38:06;;;;;;;;;;;;;;;20.06;46.04;100296.66;7277620;19;153477;-52
2022/03/12 01:40:33;;;;;;;;;;;;;;;20.05;46.33;100292.19;7279716;19;153843;-53
2022/03/12 01:43:00;;;;;;;;;;;;;;;20.04;46.42;100290.53;7280365;19;151778;-52
2022/03/12 01:45:29;;;;;;;;;;;;;;;20.03;46.10;100291.69;7279495;19;152029;-53
2022/03/12 01:47:57;;;;;;;;;;;;;;;20.03;46.37;100292.53;7276089;19;155422;-53
2022/03/12 01:50:25;;;;;;;;;;;;;;;20.01;46.37;100294.81;7279679;19;152078;-54
2022/03/12 01:52:53;;;;;;;;;;;;;;;20.02;46.12;100292.84;7280049;19;153461;-52
2022/03/12 01:55:21;;;;;;;;;;;;;;;19.99;46.45;100292.31;7278204;19;154163;-53
2022/03/12 01:57:48;;;;;;;;;;;;;;;20.01;46.63;100294.00;7287610;19;151760;-52
2022/03/12 02:00:23;;;;;;;;;;;;;;;19.98;46.26;100290.69;7278144;19;153240;-52
2022/03/12 02:02:54;;;;;;;;;;;;;;;19.99;46.30;100297.09;7280206;19;152038;-53
2022/03/12 02:05:25;;;;;;;;;;;;;;;19.96;46.58;100298.59;7278703;19;153844;-53
2022/03/12 02:07:52;;;;;;;;;;;;;;;19.94;46.42;100291.66;7276135;19;153290;-53
2022/03/12 02:10:20;;;;;;;;;;;;;;;19.93;46.59;100304.00;7277289;19;151652;-52
2022/03/12 02:12:47;;;;;;;;;;;;;;;19.91;46.50;100301.50;7279313;19;153443;-52
2022/03/12 02:15:17;;;;;;;;;;;;;;;19.90;46.13;100299.03;7276924;19;154837;-52
2022/03/12 02:17:44;;;;;;;;;;;;;;;19.90;46.06;100302.66;7279158;19;151746;-52
2022/03/12 02:20:11;;;;;;;;;;;;;;;19.88;46.15;100307.78;7282881;19;153002;-53
2022/03/12 02:22:38;;;;;;;;;;;;;;;19.87;46.33;100308.91;7278575;19;151902;-53
2022/03/12 02:25:05;;;;;;;;;;;;;;;19.84;46.01;100306.75;7278100;19;153351;-53
2022/03/12 02:27:32;;;;;;;;;;;;;;;19.83;46.44;100307.91;7276031;19;153344;-53
2022/03/12 02:30:00;;;;;;;;;;;;;;;19.83;46.28;100310.69;7278324;19;151842;-52
2022/03/12 02:32:28;;;;;;;;;;;;;;;19.83;46.08;100316.31;7279586;19;152640;-52
2022/03/12 02:34:56;;;;;;;;;;;;;;;19.81;46.12;100309.34;7281179;19;152612;-53
2022/03/12 02:37:35;;;;;;;;;;;;;;;19.80;46.35;100319.75;7285915;19;152119;-52
2022/03/12 02:40:06;;;;;;;;;;;;;;;19.78;46.61;100315.59;7284318;19;152895;-53
2022/03/12 02:42:34;;;;;;;;;;;;;;;19.78;46.35;100313.63;7291518;19;153643;-53
2022/03/12 02:45:01;;;;;;;;;;;;;;;19.76;46.38;100313.09;7285050;19;152592;-52
2022/03/12 02:47:32;;;;;;;;;;;;;;;19.75;46.59;100314.28;7282038;19;154172;-52
2022/03/12 02:50:02;;;;;;;;;;;;;;;19.74;46.64;100315.41;7284846;19;152059;-52
2022/03/12 02:52:44;;;;;;;;;;;;;;;19.75;46.44;100310.66;7283234;19;154794;-53
2022/03/12 02:55:34;;;;;;;;;;;;;;;19.72;46.59;100309.28;7284264;19;152722;-53
2022/03/12 02:58:14;;;;;;;;;;;;;;;19.69;46.73;100309.94;7284038;19;152158;-52
2022/03/12 03:00:43;;;;;;;;;;;;;;;19.70;46.55;100302.38;7282425;19;151935;-53
2022/03/12 03:03:10;;;;;;;;;;;;;;;19.69;46.60;100312.75;7290882;19;154392;-53
2022/03/12 03:05:46;;;;;;;;;;;;;;;19.69;46.62;100311.91;7284726;19;152856;-53
2022/03/12 03:08:23;;;;;;;;;;;;;;;19.69;46.33;100312.75;7280817;19;154131;-52
2022/03/12 03:10:52;;;;;;;;;;;;;;;19.68;46.81;100308.28;7280015;19;151733;-53
2022/03/12 03:13:20;;;;;;;;;;;;;;;19.67;46.58;100312.22;7283344;19;152609;-53
2022/03/12 03:15:49;;;;;;;;;;;;;;;19.64;46.55;100312.88;7282891;19;153488;-53
2022/03/12 03:18:16;;;;;;;;;;;;;;;19.64;46.68;100312.88;7283836;19;151962;-53
2022/03/12 03:20:44;;;;;;;;;;;;;;;19.62;46.38;100312.38;7283929;19;153704;-53
2022/03/12 03:23:11;;;;;;;;;;;;;;;19.62;46.88;100315.16;7280151;19;154174;-52
2022/03/12 03:25:44;;;;;;;;;;;;;;;19.60;46.65;100316.63;7289903;19;152122;-52
2022/03/12 03:28:10;;;;;;;;;;;;;;;19.61;46.41;100318.28;7280699;19;154948;-52
2022/03/12 03:30:38;;;;;;;;;;;;;;;19.61;46.44;100341.53;7283059;19;151631;-53
2022/03/12 03:33:09;;;;;;;;;;;;;;;19.59;46.37;100326.16;7284272;19;155044;-52
2022/03/12 03:35:39;;;;;;;;;;;;;;;19.58;46.76;100332.94;7280825;19;153246;-52
2022/03/12 03:38:06;;;;;;;;;;;;;;;19.57;46.42;100340.50;7283616;19;151618;-52
2022/03/12 03:40:34;;;;;;;;;;;;;;;19.57;46.73;100342.47;7282799;19;153555;-53
2022/03/12 03:43:00;;;;;;;;;;;;;;;19.57;46.46;100348.09;7282522;19;154461;-53
2022/03/12 03:45:28;;;;;;;;;;;;;;;19.56;46.67;100343.63;7281229;19;151534;-54
2022/03/12 03:47:56;;;;;;;;;;;;;;;19.55;46.60;100354.00;7287879;19;152558;-52
2022/03/12 03:50:26;;;;;;;;;;;;;;;19.54;46.14;100353.16;7283290;19;151866;-53
2022/03/12 03:52:56;;;;;;;;;;;;;;;19.53;46.19;100353.50;7283342;19;153420;-53
2022/03/12 03:55:25;;;;;;;;;;;;;;;19.51;46.49;100347.38;7282579;19;153936;-52
2022/03/12 03:57:53;;;;;;;;;;;;;;;19.49;46.66;100353.28;7282970;19;151735;-52
2022/03/12 04:00:23;;;;;;;;;;;;;;;19.47;46.51;100355.59;7283294;19;153673;-52
2022/03/12 04:02:55;;;;;;;;;;;;;;;19.46;46.61;100347.50;7281898;19;154041;-52
2022/03/12 04:05:22;;;;;;;;;;;;;;;19.45;46.46;100355.06;7281052;19;152004;-52
2022/03/12 04:07:49;;;;;;;;;;;;;;;19.43;46.33;100356.50;7280896;19;152626;-53
2022/03/12 04:10:16;;;;;;;;;;;;;;;19.44;46.20;100359.00;7287199;19;154076;-53
2022/03/12 04:12:43;;;;;;;;;;;;;;;19.41;46.52;100356.81;7282242;19;152447;-55
2022/03/12 04:15:09;;;;;;;;;;;;;;;19.41;46.73;100358.78;7281880;19;153788;-53
2022/03/12 04:17:37;;;;;;;;;;;;;;;19.40;46.42;100357.94;7282240;19;151847;-52
2022/03/12 04:20:04;;;;;;;;;;;;;;;19.38;46.36;100370.63;7281559;19;152737;-52
2022/03/12 04:22:31;;;;;;;;;;;;;;;19.37;46.26;100369.78;7281247;19;153335;-52
2022/03/12 04:24:58;;;;;;;;;;;;;;;19.36;46.36;100370.09;7282567;19;151466;-52
2022/03/12 04:27:25;;;;;;;;;;;;;;;19.36;46.75;100370.94;7281624;19;152960;-53
2022/03/12 04:29:52;;;;;;;;;;;;;;;19.37;46.73;100380.16;7280424;19;153928;-52
2022/03/12 04:32:20;;;;;;;;;;;;;;;19.34;46.68;100378.84;7289899;19;151553;-52
2022/03/12 04:34:46;;;;;;;;;;;;;;;19.34;46.83;100378.00;7280504;19;154487;-53
2022/03/12 04:37:13;;;;;;;;;;;;;;;19.33;46.84;100379.13;7279289;19;152111;-53
2022/03/12 04:39:40;;;;;;;;;;;;;;;19.32;46.88;100386.72;7282587;19;153412;-52
2022/03/12 04:42:07;;;;;;;;;;;;;;;19.30;46.84;100389.00;7280311;19;153341;-53
2022/03/12 04:44:34;;;;;;;;;;;;;;;19.30;46.71;100385.38;7282812;19;153534;-53
2022/03/12 04:47:01;;;;;;;;;;;;;;;19.28;46.96;100391.28;7283065;19;154249;-53
2022/03/12 04:49:29;;;;;;;;;;;;;;;19.28;46.77;100396.88;7279755;19;153931;-52
2022/03/12 04:52:02;;;;;;;;;;;;;;;19.26;46.90;100389.94;7281701;19;151875;-52
2022/03/12 04:54:32;;;;;;;;;;;;;;;19.27;46.87;100408.38;7287890;19;153123;-52
2022/03/12 04:56:58;;;;;;;;;;;;;;;19.24;46.66;100409.03;7278854;19;151714;-52
2022/03/12 04:59:25;;;;;;;;;;;;;;;19.24;46.69;100415.47;7280519;19;153175;-53
2022/03/12 05:01:53;;;;;;;;;;;;;;;19.23;46.71;100421.38;7280211;19;155101;-52
2022/03/12 05:04:20;;;;;;;;;;;;;;;19.23;46.71;100424.16;7281795;19;152062;-53
2022/03/12 05:06:47;;;;;;;;;;;;;;;19.20;46.60;100428.44;7281640;19;153405;-52
2022/03/12 05:09:13;;;;;;;;;;;;;;;19.20;46.58;100433.19;7276717;19;153282;-53
2022/03/12 05:11:40;;;;;;;;;;;;;;;19.20;46.81;100444.41;7279558;19;151635;-53
2022/03/12 05:14:10;;;;;;;;;;;;;;;19.19;46.64;100451.13;7287332;19;153221;-52
2022/03/12 05:16:36;;;;;;;;;;;;;;;19.18;46.71;100452.28;7280803;19;151631;-53
2022/03/12 05:19:06;;;;;;;;;;;;;;;19.17;46.52;100459.84;7279058;19;153467;-52
2022/03/12 05:21:33;;;;;;;;;;;;;;;19.14;46.91;100463.28;7279999;19;153914;-53
2022/03/12 05:24:00;;;;;;;;;;;;;;;19.13;46.49;100467.22;7281088;19;152168;-53
2022/03/12 05:26:26;;;;;;;;;;;;;;;19.12;46.25;100470.34;7281030;19;152700;-53
2022/03/12 05:28:53;;;;;;;;;;;;;;;19.11;46.64;100477.91;7277321;19;153970;-52
2022/03/12 05:31:20;;;;;;;;;;;;;;;19.09;46.70;100474.56;7281135;19;151969;-52
2022/03/12 05:33:47;;;;;;;;;;;;;;;19.10;46.59;100488.28;7278545;19;153315;-53
2022/03/12 05:36:14;;;;;;;;;;;;;;;19.10;46.59;100479.88;7287245;19;153975;-52
2022/03/12 05:38:40;;;;;;;;;;;;;;;19.09;46.67;100482.97;7280202;19;152110;-53
2022/03/12 05:41:11;;;;;;;;;;;;;;;19.07;46.53;100491.69;7277484;19;153226;-53
2022/03/12 05:43:46;;;;;;;;;;;;;;;19.09;46.84;100499.78;7279272;19;151896;-52
2022/03/12 05:46:15;;;;;;;;;;;;;;;19.07;46.63;100500.09;7280444;19;153374;-52
2022/03/12 05:48:42;;;;;;;;;;;;;;;19.07;46.47;100502.91;7277439;19;153293;-52
2022/03/12 05:51:09;;;;;;;;;;;;;;;19.07;46.71;100511.31;7279509;19;151696;-53
2022/03/12 05:53:36;;;;;;;;;;;;;;;19.04;46.99;100514.69;7278255;19;152680;-53
2022/03/12 05:56:04;;;;;;;;;;;;;;;19.05;46.83;100518.34;7278458;19;154160;-53
2022/03/12 05:58:35;;;;;;;;;;;;;;;19.03;46.51;100523.44;7287469;19;151725;-52
2022/03/12 06:01:02;;;;;;;;;;;;;;;19.04;46.98;100530.66;7278767;19;153219;-52
2022/03/12 06:03:28;;;;;;;;;;;;;;;19.03;46.74;100529.84;7279592;19;151879;-53
2022/03/12 06:05:58;;;;;;;;;;;;;;;19.00;46.59;100541.66;7280148;19;152815;-53
2022/03/12 06:08:26;;;;;;;;;;;;;;;18.98;46.90;100541.16;7277849;19;154659;-52
2022/03/12 06:10:55;;;;;;;;;;;;;;;18.99;46.63;100537.19;7284316;19;151872;-52
2022/03/12 06:13:23;;;;;;;;;;;;;;;18.99;46.57;100547.56;7285923;19;153605;-53
2022/03/12 06:15:54;;;;;;;;;;;;;;;18.97;46.80;100547.88;7285501;19;153458;-53
2022/03/12 06:18:23;;;;;;;;;;;;;;;18.96;46.89;100545.38;7283516;19;151659;-53
2022/03/12 06:20:50;;;;;;;;;;;;;;;18.96;46.90;100553.78;7292606;19;154565;-54
2022/03/12 06:23:17;;;;;;;;;;;;;;;18.94;46.64;100550.47;7285297;19;152202;-52
2022/03/12 06:25:44;;;;;;;;;;;;;;;18.94;46.74;100556.88;7286469;19;152873;-53
2022/03/12 06:28:10;;;;;;;;;;;;;;;18.93;46.82;100555.25;7283503;19;154162;-52
2022/03/12 06:30:38;;;;;;;;;;;;;;;18.95;46.77;100571.72;7284780;19;151944;-53
2022/03/12 06:33:05;;;;;;;;;;;;;;;18.94;47.05;100565.28;7285702;19;153436;-53
2022/03/12 06:35:32;;;;;;;;;;;;;;;18.92;46.98;100567.56;7283603;19;152079;-52
2022/03/12 06:37:59;;;;;;;;;;;;;;;18.92;47.27;100578.75;7286199;19;151984;-52
2022/03/12 06:40:28;;;;;;;;;;;;;;;18.91;47.09;100565.91;7285059;19;153013;-52
2022/03/12 06:42:56;;;;;;;;;;;;;;;18.90;47.20;100571.78;7292596;19;153450;-53
2022/03/12 06:45:24;;;;;;;;;;;;;;;18.90;47.32;100577.41;7285326;19;153249;-53
2022/03/12 06:47:52;;;;;;;;;;;;;;;18.89;47.07;100575.75;7283752;19;154102;-53
2022/03/12 06:50:21;;;;;;;;;;;;;;;18.87;47.17;100578.84;7284620;19;151895;-52
2022/03/12 06:52:48;;;;;;;;;;;;;;;18.87;47.24;100594.81;7285346;19;153326;-52
2022/03/12 06:55:16;;;;;;;;;;;;;;;18.86;46.89;100590.34;7283503;19;154235;-52
2022/03/12 06:57:42;;;;;;;;;;;;;;;18.86;47.24;100593.13;7283001;19;152230;-52
2022/03/12 07:00:17;;;;;;;;;;;;;;;18.85;47.11;100606.31;7284873;19;152600;-52
2022/03/12 07:02:44;;;;;;;;;;;;;;;18.87;47.21;100603.22;7282549;19;155483;-52
2022/03/12 07:05:11;;;;;;;;;;;;;;;18.92;46.82;100614.31;7291640;19;151618;-52
2022/03/12 07:07:38;;;;;;;;;;;;;;;18.95;47.08;100620.13;7283095;19;153259;-52
2022/03/12 07:10:07;;;;;;;;;;;;;;;19.01;47.15;100629.28;7281335;19;151922;-53
2022/03/12 07:12:34;;;;;;;;;;;;;;;19.05;47.20;100625.56;7284581;19;153341;-52
2022/03/12 07:15:01;;;;;;;;;;;;;;;19.09;47.25;100626.63;7282674;19;154839;-52
2022/03/12 07:17:28;;;;;;;;;;;;;;;19.15;47.35;100627.38;7284282;19;152527;-52
2022/03/12 07:19:55;;;;;;;;;;;;;;;19.18;47.15;100629.53;7283410;19;153594;-53
2022/03/12 07:22:21;;;;;;;;;;;;;;;19.23;47.66;100632.25;7284237;19;153300;-52
2022/03/12 07:24:48;;;;;;;;;;;;;;;19.28;47.75;100640.56;7291827;19;151478;-52
2022/03/12 07:27:15;;;;;;;;;;;;;;;19.34;47.60;100652.53;7282776;19;154330;-53
2022/03/12 07:29:41;;;;;;;;;;;;;;;19.40;48.08;100652.09;7281333;19;151535;-52
2022/03/12 07:32:08;;;;;;;;;;;;;;;19.46;47.77;100656.50;7283856;19;153153;-52
2022/03/12 07:34:35;;;;;;;;;;;;;;;19.54;48.18;100654.97;7282723;19;153350;-52
2022/03/12 07:37:02;;;;;;;;;;;;;;;19.59;47.93;100660.47;7283151;19;151958;-53
2022/03/12 07:39:31;;;;;;;;;;;;;;;19.66;47.98;100663.72;7283683;19;152986;-52
2022/03/12 07:42:04;;;;;;;;;;;;;;;19.73;48.24;100675.34;7283056;19;153342;-52
2022/03/12 07:44:31;;;;;;;;;;;;;;;19.80;48.09;100686.16;7282953;19;152524;-53
2022/03/12 07:46:58;;;;;;;;;;;;;;;19.86;47.75;100674.53;7290977;19;152733;-53
2022/03/12 07:49:25;;;;;;;;;;;;;;;19.93;47.75;100680.56;7281109;19;151875;-53
2022/03/12 07:51:53;;;;;;;;;;;;;;;19.99;47.23;100703.69;7283909;19;152137;-51
2022/03/12 07:54:20;;;;;;;;;;;;;;;20.07;47.11;100704.97;7281694;19;153284;-52
2022/03/12 07:56:47;;;;;;;;;;;;;;;20.14;47.26;100696.97;7283006;19;151901;-53
2022/03/12 07:59:14;;;;;;;;;;;;;;;20.20;47.07;100713.38;7283061;19;153144;-53
2022/03/12 08:01:40;;;;;;;;;;;;;;;20.25;47.05;100704.88;7282107;19;154168;-53
2022/03/12 08:04:07;;;;;;;;;;;;;;;20.33;46.66;100711.75;7282315;19;151822;-53
2022/03/12 08:06:34;;;;;;;;;;;;;;;20.38;46.78;100708.84;7281958;19;152977;-53
2022/03/12 08:09:01;;;;;;;;;;;;;;;20.44;46.45;100721.63;7288232;19;153733;-52
2022/03/12 08:11:28;;;;;;;;;;;;;;;20.50;45.71;100716.72;7280364;19;152702;-53
2022/03/12 08:14:01;;;;;;;;;;;;;;;20.56;45.55;100715.47;7281854;19;154116;-53
2022/03/12 08:16:28;;;;;;;;;;;;;;;20.59;46.02;100707.25;7282653;19;151745;-53
2022/03/12 08:18:55;;;;;;;;;;;;;;;20.65;46.09;100722.00;7282959;19;153447;-53
2022/03/12 08:21:22;;;;;;;;;;;;;;;20.68;46.00;100724.16;7282190;19;153290;-53
2022/03/12 08:23:49;;;;;;;;;;;;;;;20.71;46.01;100730.00;7283270;19;151720;-52
2022/03/12 08:26:16;;;;;;;;;;;;;;;20.73;45.79;100724.88;7283694;19;152863;-53
2022/03/12 08:28:43;;;;;;;;;;;;;;;20.77;46.07;100733.50;7280974;19;153315;-53
2022/03/12 08:31:10;;;;;;;;;;;;;;;20.78;45.96;100738.81;7289315;19;151555;-53
2022/03/12 08:33:37;;;;;;;;;;;;;;;20.81;45.69;100745.75;7280829;19;153303;-52
2022/03/12 08:36:04;;;;;;;;;;;;;;;20.84;45.35;100750.78;7283295;19;151792;-53
2022/03/12 08:38:32;;;;;;;;;;;;;;;20.85;45.33;100752.41;7282414;19;153710;-52
2022/03/12 08:40:59;;;;;;;;;;;;;;;20.88;45.54;100756.56;7281150;19;154123;-53
2022/03/12 08:43:25;;;;;;;;;;;;;;;20.89;45.47;100759.09;7280453;19;151913;-52
2022/03/12 08:45:52;;;;;;;;;;;;;;;20.89;45.44;100767.50;7282273;19;152540;-53
2022/03/12 08:48:19;;;;;;;;;;;;;;;20.92;45.50;100778.09;7279350;19;153362;-53
2022/03/12 08:50:47;;;;;;;;;;;;;;;20.92;45.14;100786.53;7278152;19;151809;-52
2022/03/12 08:53:15;;;;;;;;;;;;;;;20.94;45.16;100789.03;7286796;19;152609;-53
2022/03/12 08:55:42;;;;;;;;;;;;;;;20.94;44.83;100784.22;7282078;19;151836;-52
2022/03/12 08:58:09;;;;;;;;;;;;;;;20.94;44.89;100791.84;7281677;19;152733;-53
2022/03/12 09:00:36;;;;;;;;;;;;;;;20.95;45.26;100790.66;7280940;19;154342;-53
2022/03/12 09:03:04;;;;;;;;;;;;;;;20.95;45.03;100799.09;7281773;19;151827;-53
2022/03/12 09:05:31;;;;;;;;;;;;;;;20.90;44.64;100788.81;7281368;19;153461;-52
2022/03/12 09:07:58;;;;;;;;;;;;;;;20.90;44.51;100787.97;7280377;19;153503;-52
2022/03/12 09:10:25;;;;;;;;;;;;;;;20.92;44.80;100780.06;7275571;19;152419;-52
2022/03/12 09:12:53;;;;;;;;;;;;;;;20.89;44.72;100780.72;7279934;19;153321;-53
2022/03/12 09:15:22;;;;;;;;;;;;;;;20.90;44.65;100782.34;7286985;19;152384;-53
2022/03/12 09:17:49;;;;;;;;;;;;;;;20.88;44.65;100781.84;7281512;19;152479;-53
2022/03/12 09:20:15;;;;;;;;;;;;;;;20.86;44.90;100776.53;7280063;19;154254;-53
2022/03/12 09:22:42;;;;;;;;;;;;;;;20.89;45.27;100783.53;7281067;19;151770;-53
2022/03/12 09:25:12;;;;;;;;;;;;;;;20.86;45.00;100784.97;7280742;19;152987;-53
2022/03/12 09:27:44;;;;;;;;;;;;;;;20.89;45.31;100789.13;7279122;19;153226;-53
2022/03/12 09:30:19;;;;;;;;;;;;;;;20.89;45.34;100780.72;7276086;19;151618;-53
2022/03/12 09:32:46;;;;;;;;;;;;;;;20.86;45.20;100783.00;7281264;19;153221;-53
2022/03/12 09:35:14;;;;;;;;;;;;;;;20.77;43.42;100784.88;7287186;19;153666;-52
2022/03/12 09:37:40;;;;;;;;;;;;;;;20.74;42.43;100785.50;7277349;19;153538;-52
2022/03/12 09:40:08;;;;;;;;;;;;;;;20.74;41.83;100796.75;7280202;19;153657;-52
2022/03/12 09:45:48;;;;;;;;;;;;;;;20.61;40.05;100808.81;7275948;19;152163;-52
2022/03/12 09:48:18;;;;;;;;;;;;;;;20.48;40.69;100791.97;7278714;19;154039;-53
2022/03/12 09:50:49;;;;;;;;;;;;;;;20.44;41.02;100797.41;7277925;19;152004;-53
2022/03/12 09:53:16;;;;;;;;;;;;;;;20.48;41.09;100803.22;7280426;19;152705;-53
2022/03/12 09:55:43;;;;;;;;;;;;;;;20.52;41.45;100795.81;7276488;19;153772;-52
2022/03/12 09:58:12;;;;;;;;;;;;;;;20.54;41.51;100802.78;7285909;19;151671;-53
2022/03/12 10:00:39;;;;;;;;;;;;;;;20.52;41.30;100795.81;7277142;19;152494;-53
2022/03/12 10:03:06;;;;;;;;;;;;;;;20.49;41.00;100800.06;7279103;19;151705;-53
2022/03/12 10:05:34;;;;;;;;;;;;;;;20.49;41.13;100802.06;7279681;19;153402;-53
2022/03/12 10:08:01;;;;;;;;;;;;;;;20.49;41.02;100818.91;7277390;19;153592;-53
2022/03/12 10:10:28;;;;;;;;;;;;;;;20.50;40.47;100812.97;7276911;19;152395;-53
2022/03/12 10:12:55;;;;;;;;;;;;;;;20.54;40.71;100808.38;7279885;19;152638;-53
2022/03/12 10:15:22;;;;;;;;;;;;;;;20.59;40.78;100811.09;7278434;19;154220;-53
2022/03/12 10:17:49;;;;;;;;;;;;;;;20.63;40.52;100814.94;7277722;19;152011;-53
2022/03/12 10:20:16;;;;;;;;;;;;;;;20.70;40.73;100814.53;7283048;19;153385;-53
2022/03/12 10:22:43;;;;;;;;;;;;;;;20.74;40.20;100818.38;7279982;19;151995;-53
2022/03/12 10:25:12;;;;;;;;;;;;;;;20.77;40.00;100809.31;7275917;19;153328;-53
2022/03/12 10:27:39;;;;;;;;;;;;;;;20.82;40.12;100810.03;7277177;19;154006;-53
2022/03/12 10:30:06;;;;;;;;;;;;;;;20.90;40.26;100821.66;7272814;19;151829;-53
2022/03/12 10:32:41;;;;;;;;;;;;;;;20.94;40.00;100808.69;7254027;19;153446;-53
2022/03/12 10:35:09;;;;;;;;;;;;;;;20.97;39.96;100819.28;7275646;19;154007;-53
2022/03/12 10:37:35;;;;;;;;;;;;;;;21.03;39.77;100816.03;7277009;19;151574;-53
2022/03/12 10:40:03;;;;;;;;;;;;;;;21.10;39.63;100826.84;7277185;19;152031;-53
2022/03/12 10:42:31;;;;;;;;;;;;;;;21.13;39.65;100820.63;7284208;19;153187;-53
2022/03/12 10:45:09;;;;;;;;;;;;;;;21.18;39.61;100826.97;7278867;19;152031;-53
2022/03/12 10:47:40;;;;;;;;;;;;;;;21.22;39.63;100832.78;7276730;19;154001;-53
2022/03/12 10:50:09;;;;;;;;;;;;;;;21.26;39.67;100825.38;7275419;19;151568;-53
2022/03/12 10:52:40;;;;;;;;;;;;;;;21.32;39.43;100823.28;7275077;19;153334;-53
2022/03/12 10:55:18;;;;;;;;;;;;;;;21.36;39.22;100825.16;7279642;19;154040;-54
2022/03/12 10:57:54;;;;;;;;;;;;;;;21.44;39.18;100815.94;7282404;19;151872;-53
2022/03/12 11:00:21;;;;;;;;;;;;;;;21.50;38.79;100813.84;7284720;19;152637;-53
2022/03/12 11:02:54;;;;;;;;;;;;;;;21.51;38.94;100810.72;7284041;19;154780;-53
2022/03/12 11:05:29;;;;;;;;;;;;;;;21.60;38.38;100817.25;7292862;19;151834;-53
2022/03/12 11:08:13;;;;;;;;;;;;;;;21.60;38.61;100810.78;7283454;19;154535;-53
2022/03/12 11:10:44;;;;;;;;;;;;;;;21.60;38.78;100802.38;7279209;19;152194;-53
2022/03/12 11:13:25;;;;;;;;;;;;;;;21.61;38.90;100799.25;7283233;19;152728;-53
2022/03/12 11:16:09;;;;;;;;;;;;;;;21.67;38.85;100791.50;7283035;19;152752;-53
2022/03/12 11:18:36;;;;;;;;;;;;;;;21.70;38.38;100799.31;7283980;19;151996;-53
2022/03/12 11:21:03;;;;;;;;;;;;;;;21.77;38.42;100796.84;7284174;19;152795;-53
2022/03/12 11:23:30;;;;;;;;;;;;;;;21.81;38.05;100805.47;7283689;19;153285;-53
2022/03/12 11:25:59;;;;;;;;;;;;;;;21.74;38.75;100806.78;7291567;19;151865;-53
2022/03/12 11:28:29;;;;;;;;;;;;;;;21.71;38.84;100815.84;7281384;19;153489;-53
2022/03/12 11:30:56;;;;;;;;;;;;;;;21.73;38.46;100819.16;7275635;19;152043;-53
2022/03/12 11:33:27;;;;;;;;;;;;;;;21.66;38.20;100812.34;7281924;19;153398;-54
2022/03/12 11:36:09;;;;;;;;;;;;;;;21.86;37.35;100811.81;7282517;19;153176;-53
2022/03/12 11:38:37;;;;;;;;;;;;;;;21.89;37.42;100816.81;7281697;19;151673;-54
2022/03/12 11:41:08;;;;;;;;;;;;;;;22.01;37.00;100819.06;7262316;19;153072;-53
2022/03/12 11:43:40;;;;;;;;;;;;;;;22.06;36.53;100824.56;7271991;19;153890;-53
2022/03/12 11:46:11;;;;;;;;;;;;;;;22.07;36.81;100820.59;7282794;19;152035;-54
2022/03/12 11:48:38;;;;;;;;;;;;;;;22.10;36.60;100823.59;7288063;19;152852;-53
2022/03/12 11:51:16;;;;;;;;;;;;;;;22.16;36.54;100815.84;7280498;19;151901;-53
2022/03/12 11:53:45;;;;;;;;;;;;;;;22.14;36.28;100810.53;7280940;19;152177;-53
2022/03/12 11:56:17;;;;;;;;;;;;;;;22.20;36.20;100819.69;7278489;19;153615;-53
2022/03/12 11:58:44;;;;;;;;;;;;;;;22.25;35.91;100833.63;7281873;19;151782;-53
2022/03/12 12:01:19;;;;;;;;;;;;;;;22.20;36.44;100828.13;7282738;19;152726;-53
2022/03/12 12:03:48;;;;;;;;;;;;;;;22.26;36.18;100826.81;7280046;19;152279;-54
2022/03/12 12:06:15;;;;;;;;;;;;;;;22.26;36.09;100820.38;7275589;19;151946;-53
2022/03/12 12:08:43;;;;;;;;;;;;;;;22.28;35.93;100826.50;7280906;19;151774;-53
2022/03/12 12:11:11;;;;;;;;;;;;;;;22.24;36.06;100817.88;7285879;19;154825;-54
2022/03/12 12:13:44;;;;;;;;;;;;;;;22.30;35.87;100816.59;7281980;19;153059;-53
2022/03/12 12:16:15;;;;;;;;;;;;;;;22.25;36.00;100841.22;7281276;19;153360;-54
2022/03/12 12:18:43;;;;;;;;;;;;;;;22.23;36.06;100819.03;7281242;19;151605;-53
2022/03/12 12:21:18;;;;;;;;;;;;;;;22.19;35.95;100812.38;7281095;19;152381;-53
2022/03/12 12:23:47;;;;;;;;;;;;;;;22.19;35.95;100812.38;7278187;19;153435;-53
2022/03/12 12:26:14;;;;;;;;;;;;;;;22.15;35.94;100803.75;7279936;19;152165;-53
2022/03/12 12:28:45;;;;;;;;;;;;;;;22.12;36.07;100803.59;7280481;19;152424;-53
2022/03/12 12:31:21;;;;;;;;;;;;;;;22.11;36.18;100802.75;7277350;19;154790;-54
2022/03/12 12:33:49;;;;;;;;;;;;;;;22.06;36.30;100799.22;7288575;19;152171;-54
2022/03/12 12:36:21;;;;;;;;;;;;;;;22.03;36.24;100794.25;7281444;19;153785;-53
2022/03/12 12:39:08;;;;;;;;;;;;;;;21.99;36.18;100798.84;7280824;19;151793;-54